52NY weather

Bedson's Land Base Airport
Honeoye Falls, New York, United States

Public forecast

Using degrees Fahrenheit for public forecast. Weather courtesy of forecast.io.

Closest aviation weather report (METAR) to Bedson's Land Base Airport

Closest report is Greater Rochester International Airport, 11.4 nm (21.1 km) N. Retrieved 2019/12/15 15:31 UTC (0 seconds ago):

KROC 151531Z 29018G28KT 10SM BKN028 BKN047 BKN070 01/M04 A2980

Closest aviation forecast (TAF) to Bedson's Land Base Airport

Closest forecast is Greater Rochester International Airport, 11.4 nm (21.1 km) N. Retrieved 2019/12/15 12:36 UTC (3 hours ago):

TAF KROC 151134Z 1512/1612 27018G34KT 6SM -SN BKN015 FM151400 27019G34KT P6SM OVC025 FM151500 27020G34KT P6SM OVC035 FM152200 28015G24KT P6SM BKN120 FM160800 21005KT P6SM BKN200